sensor_id;sensor_type;location;lat;lon;timestamp;temperature;humidity
44573;DHT22;31762;45.420;10.072;2022-12-17T00:00:20;5.00;99.90
44573;DHT22;31762;45.420;10.072;2022-12-17T00:05:28;4.90;99.90
44573;DHT22;31762;45.420;10.072;2022-12-17T00:10:30;4.90;99.90
44573;DHT22;31762;45.420;10.072;2022-12-17T00:15:32;4.90;99.90
44573;DHT22;31762;45.420;10.072;2022-12-17T00:20:33;4.70;99.90
44573;DHT22;31762;45.420;10.072;2022-12-17T00:25:35;4.80;99.90
44573;DHT22;31762;45.420;10.072;2022-12-17T00:30:37;4.80;99.90
44573;DHT22;31762;45.420;10.072;2022-12-17T00:35:39;4.80;99.90
44573;DHT22;31762;45.420;10.072;2022-12-17T00:40:40;4.80;99.90
44573;DHT22;31762;45.420;10.072;2022-12-17T00:45:42;4.80;99.90
44573;DHT22;31762;45.420;10.072;2022-12-17T00:50:44;4.70;99.90
44573;DHT22;31762;45.420;10.072;2022-12-17T00:55:46;4.70;99.90
44573;DHT22;31762;45.420;10.072;2022-12-17T01:00:47;4.60;99.90
44573;DHT22;31762;45.420;10.072;2022-12-17T01:05:49;4.50;99.90
44573;DHT22;31762;45.420;10.072;2022-12-17T01:10:51;4.40;99.90
44573;DHT22;31762;45.420;10.072;2022-12-17T01:15:53;4.30;99.90
44573;DHT22;31762;45.420;10.072;2022-12-17T01:20:57;4.30;99.90
44573;DHT22;31762;45.420;10.072;2022-12-17T01:25:59;4.30;99.90
44573;DHT22;31762;45.420;10.072;2022-12-17T01:31:00;4.20;99.90
44573;DHT22;31762;45.420;10.072;2022-12-17T01:36:02;4.20;99.90
44573;DHT22;31762;45.420;10.072;2022-12-17T01:41:05;4.40;99.90
44573;DHT22;31762;45.420;10.072;2022-12-17T01:46:07;4.30;99.90
44573;DHT22;31762;45.420;10.072;2022-12-17T01:51:09;4.30;99.90
44573;DHT22;31762;45.420;10.072;2022-12-17T01:56:11;4.30;99.90
44573;DHT22;31762;45.420;10.072;2022-12-17T02:01:13;4.30;99.90
44573;DHT22;31762;45.420;10.072;2022-12-17T02:06:24;4.30;99.90
44573;DHT22;31762;45.420;10.072;2022-12-17T02:16:55;4.30;99.90
44573;DHT22;31762;45.420;10.072;2022-12-17T02:22:08;4.20;99.90
44573;DHT22;31762;45.420;10.072;2022-12-17T02:27:14;4.30;99.90
44573;DHT22;31762;45.420;10.072;2022-12-17T02:32:17;4.20;99.90
44573;DHT22;31762;45.420;10.072;2022-12-17T02:37:20;4.30;99.90
44573;DHT22;31762;45.420;10.072;2022-12-17T02:42:22;4.30;99.90
44573;DHT22;31762;45.420;10.072;2022-12-17T02:47:27;4.20;99.90
44573;DHT22;31762;45.420;10.072;2022-12-17T02:52:30;4.30;99.90
44573;DHT22;31762;45.420;10.072;2022-12-17T02:57:35;4.30;99.90
44573;DHT22;31762;45.420;10.072;2022-12-17T03:02:44;4.30;99.90
44573;DHT22;31762;45.420;10.072;2022-12-17T03:07:46;4.30;99.90
44573;DHT22;31762;45.420;10.072;2022-12-17T03:12:47;4.20;99.90
44573;DHT22;31762;45.420;10.072;2022-12-17T03:17:49;4.20;99.90
44573;DHT22;31762;45.420;10.072;2022-12-17T03:22:51;4.20;99.90
44573;DHT22;31762;45.420;10.072;2022-12-17T03:27:52;4.20;99.90
44573;DHT22;31762;45.420;10.072;2022-12-17T03:32:54;4.20;99.90
44573;DHT22;31762;45.420;10.072;2022-12-17T03:37:56;4.10;99.90
44573;DHT22;31762;45.420;10.072;2022-12-17T03:43:05;4.10;99.90
44573;DHT22;31762;45.420;10.072;2022-12-17T03:48:09;4.10;99.90
44573;DHT22;31762;45.420;10.072;2022-12-17T03:53:12;4.00;99.90
44573;DHT22;31762;45.420;10.072;2022-12-17T03:58:14;3.80;99.90
44573;DHT22;31762;45.420;10.072;2022-12-17T04:03:16;3.80;99.90
44573;DHT22;31762;45.420;10.072;2022-12-17T04:08:18;3.70;99.90
44573;DHT22;31762;45.420;10.072;2022-12-17T04:13:20;3.60;99.90
44573;DHT22;31762;45.420;10.072;2022-12-17T04:18:22;3.50;99.90
44573;DHT22;31762;45.420;10.072;2022-12-17T04:23:23;3.70;99.90
44573;DHT22;31762;45.420;10.072;2022-12-17T04:28:25;3.70;99.90
44573;DHT22;31762;45.420;10.072;2022-12-17T04:33:27;3.70;99.90
44573;DHT22;31762;45.420;10.072;2022-12-17T04:38:29;3.80;99.90
44573;DHT22;31762;45.420;10.072;2022-12-17T04:43:30;3.70;99.90
44573;DHT22;31762;45.420;10.072;2022-12-17T04:48:32;3.80;99.90
44573;DHT22;31762;45.420;10.072;2022-12-17T04:53:34;3.80;99.90
44573;DHT22;31762;45.420;10.072;2022-12-17T04:58:36;3.80;99.90
44573;DHT22;31762;45.420;10.072;2022-12-17T05:03:39;3.80;99.90
44573;DHT22;31762;45.420;10.072;2022-12-17T05:08:41;3.80;99.90
44573;DHT22;31762;45.420;10.072;2022-12-17T05:13:43;3.70;99.90
44573;DHT22;31762;45.420;10.072;2022-12-17T05:18:45;3.60;99.90
44573;DHT22;31762;45.420;10.072;2022-12-17T05:23:47;3.50;99.90
44573;DHT22;31762;45.420;10.072;2022-12-17T05:28:49;3.40;99.90
44573;DHT22;31762;45.420;10.072;2022-12-17T05:33:50;3.30;99.90
44573;DHT22;31762;45.420;10.072;2022-12-17T05:38:52;3.50;99.90
44573;DHT22;31762;45.420;10.072;2022-12-17T05:43:54;3.40;99.90
44573;DHT22;31762;45.420;10.072;2022-12-17T05:48:56;3.60;99.90
44573;DHT22;31762;45.420;10.072;2022-12-17T05:53:57;3.50;99.90
44573;DHT22;31762;45.420;10.072;2022-12-17T05:58:59;3.50;99.90
44573;DHT22;31762;45.420;10.072;2022-12-17T06:04:01;3.40;99.90
44573;DHT22;31762;45.420;10.072;2022-12-17T06:09:03;3.40;99.90
44573;DHT22;31762;45.420;10.072;2022-12-17T06:14:05;3.30;99.90
44573;DHT22;31762;45.420;10.072;2022-12-17T06:19:07;3.30;99.90
44573;DHT22;31762;45.420;10.072;2022-12-17T06:24:09;3.40;99.90
44573;DHT22;31762;45.420;10.072;2022-12-17T06:29:11;3.20;99.90
44573;DHT22;31762;45.420;10.072;2022-12-17T06:34:12;3.20;99.90
44573;DHT22;31762;45.420;10.072;2022-12-17T06:39:14;3.30;99.90
44573;DHT22;31762;45.420;10.072;2022-12-17T06:44:16;3.20;99.90
44573;DHT22;31762;45.420;10.072;2022-12-17T06:49:18;3.30;99.90
44573;DHT22;31762;45.420;10.072;2022-12-17T06:54:19;3.00;99.90
44573;DHT22;31762;45.420;10.072;2022-12-17T06:59:21;3.10;99.90
44573;DHT22;31762;45.420;10.072;2022-12-17T07:04:23;3.10;99.90
44573;DHT22;31762;45.420;10.072;2022-12-17T07:09:25;3.00;99.90
44573;DHT22;31762;45.420;10.072;2022-12-17T07:14:26;3.00;99.90
44573;DHT22;31762;45.420;10.072;2022-12-17T07:19:28;3.00;99.90
44573;DHT22;31762;45.420;10.072;2022-12-17T07:24:30;2.90;99.90
44573;DHT22;31762;45.420;10.072;2022-12-17T07:29:32;2.70;99.90
44573;DHT22;31762;45.420;10.072;2022-12-17T07:34:33;2.80;99.90
44573;DHT22;31762;45.420;10.072;2022-12-17T07:39:35;2.80;99.90
44573;DHT22;31762;45.420;10.072;2022-12-17T07:44:37;2.80;99.90
44573;DHT22;31762;45.420;10.072;2022-12-17T07:49:39;2.90;99.90
44573;DHT22;31762;45.420;10.072;2022-12-17T07:54:42;2.90;99.90
44573;DHT22;31762;45.420;10.072;2022-12-17T07:59:44;3.00;99.90
44573;DHT22;31762;45.420;10.072;2022-12-17T08:04:45;3.10;99.90
44573;DHT22;31762;45.420;10.072;2022-12-17T08:09:47;3.00;99.90
44573;DHT22;31762;45.420;10.072;2022-12-17T08:14:51;3.00;99.90
44573;DHT22;31762;45.420;10.072;2022-12-17T08:19:52;3.00;99.90
44573;DHT22;31762;45.420;10.072;2022-12-17T08:24:54;3.00;99.90
44573;DHT22;31762;45.420;10.072;2022-12-17T08:29:56;3.30;99.90
44573;DHT22;31762;45.420;10.072;2022-12-17T08:34:57;3.50;99.90
44573;DHT22;31762;45.420;10.072;2022-12-17T08:39:59;3.50;99.90
44573;DHT22;31762;45.420;10.072;2022-12-17T08:45:01;3.30;99.90
44573;DHT22;31762;45.420;10.072;2022-12-17T08:50:04;3.30;99.90
44573;DHT22;31762;45.420;10.072;2022-12-17T08:55:06;3.40;99.90
44573;DHT22;31762;45.420;10.072;2022-12-17T09:00:09;3.50;99.90
44573;DHT22;31762;45.420;10.072;2022-12-17T09:05:11;3.70;99.90
44573;DHT22;31762;45.420;10.072;2022-12-17T09:10:13;3.40;99.90
44573;DHT22;31762;45.420;10.072;2022-12-17T09:15:15;3.70;99.90
44573;DHT22;31762;45.420;10.072;2022-12-17T09:20:17;3.70;99.90
44573;DHT22;31762;45.420;10.072;2022-12-17T09:25:18;3.50;99.90
44573;DHT22;31762;45.420;10.072;2022-12-17T09:30:20;3.80;99.90
44573;DHT22;31762;45.420;10.072;2022-12-17T09:35:22;3.90;99.90
44573;DHT22;31762;45.420;10.072;2022-12-17T09:40:24;3.90;99.90
44573;DHT22;31762;45.420;10.072;2022-12-17T09:45:35;3.90;99.90
44573;DHT22;31762;45.420;10.072;2022-12-17T09:50:42;3.80;99.90
44573;DHT22;31762;45.420;10.072;2022-12-17T09:55:48;3.80;99.90
44573;DHT22;31762;45.420;10.072;2022-12-17T10:00:51;4.00;99.90
44573;DHT22;31762;45.420;10.072;2022-12-17T10:16:32;4.30;99.90
44573;DHT22;31762;45.420;10.072;2022-12-17T10:21:35;4.20;99.90
44573;DHT22;31762;45.420;10.072;2022-12-17T10:26:47;4.10;99.90
44573;DHT22;31762;45.420;10.072;2022-12-17T10:31:49;4.20;99.90
44573;DHT22;31762;45.420;10.072;2022-12-17T10:36:51;4.40;99.90
44573;DHT22;31762;45.420;10.072;2022-12-17T10:41:54;4.30;99.90
44573;DHT22;31762;45.420;10.072;2022-12-17T10:46:56;4.30;99.90
44573;DHT22;31762;45.420;10.072;2022-12-17T10:57:26;4.20;99.90
44573;DHT22;31762;45.420;10.072;2022-12-17T11:02:30;4.10;99.90
44573;DHT22;31762;45.420;10.072;2022-12-17T11:07:40;4.20;99.90
44573;DHT22;31762;45.420;10.072;2022-12-17T11:12:47;4.30;99.90
44573;DHT22;31762;45.420;10.072;2022-12-17T11:17:49;4.30;99.90
44573;DHT22;31762;45.420;10.072;2022-12-17T11:22:57;4.50;99.90
44573;DHT22;31762;45.420;10.072;2022-12-17T11:28:09;4.40;99.90
44573;DHT22;31762;45.420;10.072;2022-12-17T11:38:37;4.70;99.90
44573;DHT22;31762;45.420;10.072;2022-12-17T11:49:20;4.70;99.90
44573;DHT22;31762;45.420;10.072;2022-12-17T11:54:51;4.90;99.90
44573;DHT22;31762;45.420;10.072;2022-12-17T12:00:11;4.90;99.90
44573;DHT22;31762;45.420;10.072;2022-12-17T12:05:36;5.20;99.90
44573;DHT22;31762;45.420;10.072;2022-12-17T12:11:10;5.30;99.90
44573;DHT22;31762;45.420;10.072;2022-12-17T12:37:18;5.30;99.90
44573;DHT22;31762;45.420;10.072;2022-12-17T12:42:36;5.40;99.90
44573;DHT22;31762;45.420;10.072;2022-12-17T12:52:56;5.50;99.90
44573;DHT22;31762;45.420;10.072;2022-12-17T12:58:32;5.70;99.90
44573;DHT22;31762;45.420;10.072;2022-12-17T13:08:44;6.10;99.90
44573;DHT22;31762;45.420;10.072;2022-12-17T13:13:48;6.10;99.90
44573;DHT22;31762;45.420;10.072;2022-12-17T13:19:04;6.10;99.90
44573;DHT22;31762;45.420;10.072;2022-12-17T13:24:24;6.30;99.90
44573;DHT22;31762;45.420;10.072;2022-12-17T13:29:32;6.20;99.90
